createdAt,value
2022-11-26T00:00:59.697Z,11.15
2022-11-26T00:03:26.328Z,8.98
2022-11-26T00:05:56.714Z,10.95
2022-11-26T00:08:30.384Z,11.27
2022-11-26T00:10:57.807Z,13.10
2022-11-26T00:13:27.528Z,9.00
2022-11-26T00:15:54.297Z,10.25
2022-11-26T00:18:23.387Z,7.45
2022-11-26T00:20:59.496Z,8.85
2022-11-26T00:23:27.954Z,8.98
2022-11-26T00:26:01.411Z,7.35
2022-11-26T00:28:35.844Z,6.90
2022-11-26T00:31:12.353Z,9.30
2022-11-26T00:33:38.847Z,13.25
2022-11-26T00:36:16.802Z,7.68
2022-11-26T00:38:44.072Z,7.30
2022-11-26T00:41:25.846Z,7.22
2022-11-26T00:43:52.567Z,9.82
2022-11-26T00:46:21.240Z,11.50
2022-11-26T00:48:48.320Z,8.35
2022-11-26T00:51:18.843Z,9.48
2022-11-26T00:53:46.911Z,13.60
2022-11-26T00:56:20.749Z,11.88
2022-11-26T00:58:48.734Z,11.35
2022-11-26T01:01:20.817Z,10.00
2022-11-26T01:03:47.719Z,9.15
2022-11-26T01:06:34.085Z,11.98
2022-11-26T01:09:00.877Z,10.95
2022-11-26T01:11:27.763Z,6.85
2022-11-26T01:13:55.882Z,9.85
2022-11-26T01:16:25.613Z,6.38
2022-11-26T01:18:54.812Z,7.55
2022-11-26T01:21:22.867Z,6.70
2022-11-26T01:23:49.529Z,8.00
2022-11-26T01:26:27.666Z,9.40
2022-11-26T01:28:55.229Z,12.88
2022-11-26T01:31:24.912Z,8.45
2022-11-26T01:33:51.513Z,11.20
2022-11-26T01:36:20.945Z,6.82
2022-11-26T01:38:47.509Z,7.43
2022-11-26T01:41:27.128Z,10.45
2022-11-26T01:43:57.678Z,8.57
2022-11-26T01:46:26.376Z,7.63
2022-11-26T01:48:53.136Z,12.35
2022-11-26T01:51:27.198Z,6.55
2022-11-26T01:54:00.789Z,6.95
2022-11-26T01:56:36.245Z,9.75
2022-11-26T01:59:15.092Z,12.05
2022-11-26T02:01:41.699Z,8.18
2022-11-26T02:04:21.788Z,10.27
2022-11-26T02:09:17.779Z,6.38
2022-11-26T02:11:45.008Z,9.88
2022-11-26T02:14:37.132Z,7.25
2022-11-26T02:17:20.872Z,9.30
2022-11-26T02:20:12.506Z,9.32
2022-11-26T02:23:24.639Z,6.10
2022-11-26T02:26:09.137Z,9.30
2022-11-26T02:28:58.521Z,10.95
2022-11-26T02:31:40.163Z,8.50
2022-11-26T02:34:34.260Z,7.45
2022-11-26T02:37:13.236Z,5.47
2022-11-26T02:39:39.778Z,4.28
2022-11-26T02:42:25.322Z,5.22
2022-11-26T02:44:52.942Z,5.00
2022-11-26T02:47:21.010Z,4.63
2022-11-26T02:49:50.333Z,5.13
2022-11-26T02:52:19.605Z,6.65
2022-11-26T02:54:48.877Z,4.00
2022-11-26T02:57:18.692Z,7.73
2022-11-26T02:59:45.310Z,5.95
2022-11-26T03:02:24.705Z,6.53
2022-11-26T03:04:54.864Z,7.70
2022-11-26T03:09:55.118Z,11.18
2022-11-26T03:12:22.669Z,10.55
2022-11-26T03:14:49.153Z,12.35
2022-11-26T03:17:16.502Z,7.40
2022-11-26T03:19:43.255Z,12.30
2022-11-26T03:22:10.132Z,11.55
2022-11-26T03:24:37.375Z,8.50
2022-11-26T03:27:04.227Z,9.15
2022-11-26T03:29:31.072Z,9.40
2022-11-26T03:31:57.816Z,7.22
2022-11-26T03:34:24.665Z,9.88
2022-11-26T03:36:51.278Z,9.13
2022-11-26T03:39:17.896Z,7.78
2022-11-26T03:41:44.479Z,9.90
2022-11-26T03:44:12.020Z,11.05
2022-11-26T03:46:38.592Z,8.88
2022-11-26T03:49:05.137Z,9.27
2022-11-26T03:51:31.611Z,10.18
2022-11-26T03:53:58.180Z,13.75
2022-11-26T03:56:24.707Z,9.60
2022-11-26T03:58:51.175Z,12.77
2022-11-26T04:01:17.901Z,10.20
2022-11-26T04:03:44.425Z,9.05
2022-11-26T04:06:11.027Z,10.73
2022-11-26T04:08:37.489Z,10.88
2022-11-26T04:11:04.018Z,14.73
2022-11-26T04:13:30.511Z,10.02
2022-11-26T04:15:57.002Z,7.35
2022-11-26T04:18:23.473Z,9.10
2022-11-26T04:20:53.105Z,8.48
2022-11-26T04:25:46.788Z,10.18
2022-11-26T04:28:15.106Z,10.23
2022-11-26T04:30:42.735Z,7.25
2022-11-26T04:33:10.180Z,9.50
2022-11-26T04:35:38.715Z,7.50
2022-11-26T04:38:05.771Z,7.45
2022-11-26T04:40:32.539Z,14.15
2022-11-26T04:42:59.143Z,6.57
2022-11-26T04:45:25.702Z,8.10
2022-11-26T04:47:52.238Z,9.45
2022-11-26T04:50:19.618Z,10.35
2022-11-26T04:52:48.558Z,5.93
2022-11-26T04:55:16.379Z,8.98
2022-11-26T04:57:43.351Z,8.48
2022-11-26T05:00:10.997Z,8.65
2022-11-26T05:02:37.568Z,5.95
2022-11-26T05:05:04.218Z,8.20
2022-11-26T05:07:30.826Z,8.23
2022-11-26T05:09:57.308Z,8.13
2022-11-26T05:12:23.799Z,6.22
2022-11-26T05:14:50.309Z,5.05
2022-11-26T05:17:19.564Z,9.45
2022-11-26T05:19:46.038Z,8.57
2022-11-26T05:22:12.604Z,7.00
2022-11-26T05:24:39.271Z,8.75
2022-11-26T05:27:05.924Z,6.40
2022-11-26T05:29:33.222Z,7.47
2022-11-26T05:31:59.798Z,5.70
2022-11-26T05:34:26.379Z,5.85
2022-11-26T05:36:52.931Z,9.70
2022-11-26T05:39:20.082Z,9.20
2022-11-26T05:41:46.734Z,8.40
2022-11-26T05:44:13.211Z,7.15
2022-11-26T05:46:42.338Z,8.57
2022-11-26T05:49:09.624Z,11.50
2022-11-26T05:51:36.137Z,6.47
2022-11-26T05:54:02.689Z,6.28
2022-11-26T05:56:29.209Z,6.07
2022-11-26T05:58:55.667Z,6.10
2022-11-26T06:01:22.142Z,6.13
2022-11-26T06:03:48.752Z,5.35
2022-11-26T06:06:15.291Z,5.82
2022-11-26T06:08:41.772Z,6.55
2022-11-26T06:11:12.381Z,7.40
2022-11-26T06:13:39.181Z,5.70
2022-11-26T06:16:06.095Z,6.63
2022-11-26T06:18:32.603Z,7.78
2022-11-26T06:21:03.810Z,8.32
2022-11-26T06:23:32.181Z,5.70
2022-11-26T06:25:58.748Z,7.22
2022-11-26T06:28:25.563Z,7.20
2022-11-26T06:30:52.121Z,6.10
2022-11-26T06:33:18.696Z,5.90
2022-11-26T06:35:45.176Z,12.18
2022-11-26T06:38:11.729Z,6.50
2022-11-26T06:40:38.369Z,11.63
2022-11-26T06:43:04.817Z,4.88
2022-11-26T06:45:31.448Z,5.05
2022-11-26T06:47:57.978Z,5.78
2022-11-26T06:50:24.663Z,5.45
2022-11-26T06:52:54.420Z,8.40
2022-11-26T06:55:21.080Z,6.00
2022-11-26T06:57:51.822Z,9.57
2022-11-26T07:00:18.720Z,8.95
2022-11-26T07:02:45.365Z,8.27
2022-11-26T07:05:11.930Z,7.93
2022-11-26T07:07:39.858Z,8.05
2022-11-26T07:10:07.801Z,9.68
2022-11-26T07:12:34.364Z,8.82
2022-11-26T07:15:00.955Z,8.80
2022-11-26T07:17:28.877Z,7.63
2022-11-26T07:19:55.390Z,8.20
2022-11-26T07:22:21.917Z,10.32
2022-11-26T07:24:48.396Z,7.47
2022-11-26T07:27:14.923Z,6.47
2022-11-26T07:29:41.386Z,10.77
2022-11-26T07:32:07.908Z,6.78
2022-11-26T07:34:34.381Z,6.68
2022-11-26T07:37:01.145Z,8.00
2022-11-26T07:39:27.639Z,8.85
2022-11-26T07:41:54.128Z,7.90
2022-11-26T07:44:20.606Z,6.05
2022-11-26T07:46:47.112Z,8.40
2022-11-26T07:49:13.599Z,8.60
2022-11-26T07:51:40.117Z,8.32
2022-11-26T07:54:08.704Z,9.25
2022-11-26T07:56:36.051Z,8.80
2022-11-26T07:59:02.718Z,7.40
2022-11-26T08:01:30.311Z,10.23
2022-11-26T08:03:58.262Z,10.68
2022-11-26T08:06:30.499Z,12.52
2022-11-26T08:08:59.473Z,7.13
2022-11-26T08:11:27.963Z,11.48
2022-11-26T08:13:57.137Z,7.57
2022-11-26T08:16:23.939Z,11.97
2022-11-26T08:18:55.101Z,12.75
2022-11-26T08:21:22.140Z,20.65
2022-11-26T08:23:48.958Z,26.05
2022-11-26T08:26:30.707Z,11.90
2022-11-26T08:29:00.291Z,9.98
2022-11-26T08:31:28.065Z,10.25
2022-11-26T08:33:59.366Z,7.03
2022-11-26T08:36:29.918Z,7.68
2022-11-26T08:38:57.472Z,9.25
2022-11-26T08:41:24.064Z,6.57
2022-11-26T08:44:05.521Z,12.63
2022-11-26T08:46:32.988Z,10.95
2022-11-26T08:48:59.715Z,6.20
2022-11-26T08:51:26.220Z,8.82
2022-11-26T08:53:52.872Z,6.45
2022-11-26T08:56:19.517Z,7.85
2022-11-26T08:58:46.649Z,5.97
2022-11-26T09:01:22.015Z,9.60
2022-11-26T09:03:50.525Z,8.38
2022-11-26T09:06:18.181Z,8.82
2022-11-26T09:09:02.908Z,10.80
2022-11-26T09:11:29.534Z,6.97
2022-11-26T09:13:57.969Z,11.63
2022-11-26T09:16:25.708Z,8.98
2022-11-26T09:18:52.755Z,7.72
2022-11-26T09:21:20.125Z,7.68
2022-11-26T09:23:46.677Z,10.93
2022-11-26T09:26:13.251Z,10.05
2022-11-26T09:28:39.848Z,15.35
2022-11-26T09:31:06.655Z,9.85
2022-11-26T09:33:33.207Z,6.63
2022-11-26T09:36:07.724Z,14.20
2022-11-26T09:38:34.860Z,6.55
2022-11-26T09:41:27.455Z,11.38
2022-11-26T09:44:25.282Z,6.18
2022-11-26T09:47:13.316Z,7.43
2022-11-26T09:49:54.882Z,6.13
2022-11-26T09:52:25.283Z,9.32
2022-11-26T09:55:01.503Z,6.97
2022-11-26T09:57:56.721Z,7.35
2022-11-26T10:00:27.336Z,9.77
2022-11-26T10:02:55.829Z,11.15
2022-11-26T10:05:28.801Z,11.18
2022-11-26T10:08:01.263Z,8.63
2022-11-26T10:10:49.076Z,8.15
2022-11-26T10:13:28.520Z,6.97
2022-11-26T10:16:06.849Z,6.05
2022-11-26T10:18:36.546Z,5.53
2022-11-26T10:21:32.429Z,5.50
2022-11-26T10:24:15.936Z,8.35
2022-11-26T10:26:43.169Z,5.82
2022-11-26T10:29:25.644Z,5.55
2022-11-26T10:32:00.423Z,5.88
2022-11-26T10:34:43.008Z,6.00
2022-11-26T10:37:09.819Z,8.18
2022-11-26T10:39:36.330Z,5.93
2022-11-26T10:42:22.023Z,7.32
2022-11-26T10:44:50.513Z,4.57
2022-11-26T10:47:31.483Z,5.55
2022-11-26T10:50:07.286Z,4.78
2022-11-26T10:52:46.435Z,5.68
2022-11-26T10:55:27.590Z,10.10
2022-11-26T10:58:02.930Z,9.30
2022-11-26T11:00:37.895Z,5.80
2022-11-26T11:03:15.033Z,7.53
2022-11-26T11:05:44.042Z,6.43
2022-11-26T11:08:31.089Z,5.30
2022-11-26T11:11:03.857Z,5.28
2022-11-26T11:13:42.040Z,7.28
2022-11-26T11:16:09.896Z,5.47
2022-11-26T11:18:37.058Z,3.63
2022-11-26T11:21:05.173Z,6.38
2022-11-26T11:24:06.984Z,4.15
2022-11-26T11:26:25.753Z,5.15
2022-11-26T11:28:54.951Z,7.55
2022-11-26T11:31:23.924Z,5.00
2022-11-26T11:33:52.602Z,5.03
2022-11-26T11:36:26.020Z,6.63
2022-11-26T11:38:58.001Z,9.00
2022-11-26T11:41:45.411Z,6.47
2022-11-26T11:44:26.285Z,4.85
2022-11-26T11:47:23.462Z,5.25
2022-11-26T11:50:29.324Z,8.07
2022-11-26T11:53:33.670Z,6.38
2022-11-26T11:56:21.928Z,9.65
2022-11-26T11:59:07.048Z,10.73
2022-11-26T12:01:48.794Z,11.80
2022-11-26T12:04:54.004Z,8.02
2022-11-26T12:07:40.636Z,12.75
2022-11-26T12:10:10.224Z,9.07
2022-11-26T12:12:42.303Z,7.07
2022-11-26T12:15:18.252Z,6.32
2022-11-26T12:17:50.633Z,10.45
2022-11-26T12:20:21.130Z,8.32
2022-11-26T12:23:33.165Z,6.32
2022-11-26T12:26:02.508Z,4.22
2022-11-26T12:28:34.209Z,10.20
2022-11-26T12:31:05.792Z,9.15
2022-11-26T12:33:35.853Z,9.85
2022-11-26T12:38:47.689Z,12.55
2022-11-26T12:41:22.133Z,11.55
2022-11-26T12:44:24.196Z,10.65
2022-11-26T12:47:04.576Z,8.90
2022-11-26T12:49:43.521Z,5.82
2022-11-26T12:52:18.694Z,9.30
2022-11-26T12:54:54.263Z,10.57
2022-11-26T12:57:23.520Z,10.52
2022-11-26T13:00:15.227Z,7.88
2022-11-26T13:02:48.881Z,11.52
2022-11-26T13:05:20.443Z,13.60
2022-11-26T13:08:11.633Z,9.40
2022-11-26T13:11:08.826Z,10.40
2022-11-26T13:13:36.507Z,10.07
2022-11-26T13:16:12.998Z,10.00
2022-11-26T13:18:46.878Z,11.98
2022-11-26T13:21:48.648Z,12.23
2022-11-26T13:24:40.056Z,11.85
2022-11-26T13:27:09.496Z,14.25
2022-11-26T13:29:59.256Z,12.18
2022-11-26T13:32:34.914Z,10.43
2022-11-26T13:35:20.190Z,14.82
2022-11-26T13:38:11.422Z,6.97
2022-11-26T13:40:54.734Z,8.52
2022-11-26T13:44:12.626Z,15.00
2022-11-26T13:46:48.340Z,10.00
2022-11-26T13:49:25.922Z,8.25
2022-11-26T13:52:10.309Z,9.43
2022-11-26T13:54:48.733Z,10.73
2022-11-26T13:57:20.984Z,11.02
2022-11-26T13:59:50.355Z,7.88
2022-11-26T14:02:38.450Z,9.15
2022-11-26T14:05:08.624Z,8.23
2022-11-26T14:10:04.380Z,8.13
2022-11-26T14:13:02.112Z,9.18
2022-11-26T14:15:40.624Z,5.82
2022-11-26T14:18:14.824Z,10.88
2022-11-26T14:21:03.970Z,8.95
2022-11-26T14:23:43.776Z,13.07
2022-11-26T14:26:15.485Z,8.82
2022-11-26T14:28:42.035Z,7.90
2022-11-26T14:31:21.943Z,7.70
2022-11-26T14:33:51.570Z,9.52
2022-11-26T14:36:26.532Z,8.18
2022-11-26T14:39:13.371Z,9.82
2022-11-26T14:41:42.675Z,10.57
2022-11-26T14:44:12.781Z,11.80
2022-11-26T14:49:26.150Z,10.45
2022-11-26T14:51:53.831Z,12.05
2022-11-26T14:54:35.377Z,10.38
2022-11-26T14:57:14.347Z,15.07
2022-11-26T15:00:05.545Z,17.27
2022-11-26T15:02:32.183Z,13.50
2022-11-26T15:05:12.513Z,11.32
2022-11-26T15:07:39.115Z,11.77
2022-11-26T15:10:15.731Z,10.90
2022-11-26T15:12:43.995Z,11.85
2022-11-26T15:15:18.282Z,76.05
2022-11-26T15:17:49.262Z,64.25
2022-11-26T15:20:18.237Z,29.67
2022-11-26T15:22:57.294Z,32.33
2022-11-26T15:25:28.043Z,50.15
2022-11-26T15:27:54.517Z,26.17
2022-11-26T15:30:24.424Z,23.45
2022-11-26T15:33:01.228Z,12.43
2022-11-26T15:35:28.860Z,11.25
2022-11-26T15:37:55.410Z,10.40
2022-11-26T15:40:34.163Z,15.35
2022-11-26T15:43:04.213Z,13.38
2022-11-26T15:48:27.074Z,12.70
2022-11-26T15:50:59.757Z,12.13
2022-11-26T15:55:56.108Z,9.50
2022-11-26T15:58:28.631Z,9.27
2022-11-26T16:00:58.550Z,13.93
2022-11-26T16:03:48.244Z,12.10
2022-11-26T16:06:34.531Z,10.25
2022-11-26T16:09:27.859Z,10.00
2022-11-26T16:12:00.117Z,14.55
2022-11-26T16:14:31.791Z,37.10
2022-11-26T16:17:06.582Z,34.58
2022-11-26T16:19:35.751Z,27.23
2022-11-26T16:22:04.298Z,18.02
2022-11-26T16:24:42.566Z,20.75
2022-11-26T16:27:18.039Z,17.42
2022-11-26T16:29:45.284Z,11.55
2022-11-26T16:32:13.746Z,10.68
2022-11-26T16:34:40.467Z,13.35
2022-11-26T16:37:31.650Z,12.35
2022-11-26T16:40:04.412Z,14.60
2022-11-26T16:42:32.605Z,14.02
2022-11-26T16:47:52.943Z,25.98
2022-11-26T16:50:22.227Z,18.23
2022-11-26T16:52:49.074Z,22.92
2022-11-26T16:55:19.142Z,24.10
2022-11-26T16:57:49.733Z,24.50
2022-11-26T17:00:19.057Z,20.15
2022-11-26T17:02:46.409Z,21.52
2022-11-26T17:05:13.138Z,20.30
2022-11-26T17:07:47.210Z,15.40
2022-11-26T17:10:21.963Z,14.90
2022-11-26T17:12:49.738Z,14.35
2022-11-26T17:15:16.900Z,11.48
2022-11-26T17:17:43.761Z,14.52
2022-11-26T17:20:22.430Z,14.25
2022-11-26T17:22:49.289Z,12.98
2022-11-26T17:25:15.886Z,14.98
2022-11-26T17:27:42.698Z,17.05
2022-11-26T17:30:27.174Z,27.25
2022-11-26T17:32:53.728Z,23.48
2022-11-26T17:35:20.230Z,16.33
2022-11-26T17:37:46.926Z,18.10
2022-11-26T17:40:21.818Z,14.65
2022-11-26T17:42:48.879Z,14.07
2022-11-26T17:45:16.296Z,11.75
2022-11-26T17:47:43.282Z,31.65
2022-11-26T17:50:24.272Z,13.80
2022-11-26T17:52:51.247Z,27.30
2022-11-26T17:55:18.819Z,35.45
2022-11-26T17:57:45.439Z,46.75
2022-11-26T18:00:17.723Z,37.90
2022-11-26T18:02:46.221Z,40.55
2022-11-26T18:05:13.771Z,31.27
2022-11-26T18:07:40.791Z,38.20
2022-11-26T18:10:11.447Z,31.20
2022-11-26T18:12:38.558Z,30.40
2022-11-26T18:15:05.764Z,22.15
2022-11-26T18:17:32.892Z,22.45
2022-11-26T18:19:59.543Z,21.85
2022-11-26T18:22:27.479Z,18.25
2022-11-26T18:24:56.775Z,11.55
2022-11-26T18:27:29.173Z,14.55
2022-11-26T18:29:55.739Z,23.50
2022-11-26T18:32:22.438Z,27.90
2022-11-26T18:34:50.504Z,18.17
2022-11-26T18:37:17.626Z,17.13
2022-11-26T18:39:44.146Z,21.10
2022-11-26T18:44:57.787Z,32.20
2022-11-26T18:47:24.345Z,30.70
2022-11-26T18:49:51.094Z,20.92
2022-11-26T18:52:17.822Z,28.88
2022-11-26T18:54:44.437Z,25.77
2022-11-26T18:57:10.924Z,24.35
2022-11-26T18:59:37.956Z,26.00
2022-11-26T19:02:04.917Z,25.67
2022-11-26T19:04:31.450Z,26.58
2022-11-26T19:06:57.953Z,28.75
2022-11-26T19:09:24.918Z,33.13
2022-11-26T19:11:54.245Z,119.65
2022-11-26T19:14:21.281Z,62.15
2022-11-26T19:16:50.670Z,81.43
2022-11-26T19:19:17.803Z,66.43
2022-11-26T19:21:44.392Z,99.88
2022-11-26T19:24:11.863Z,126.68
2022-11-26T19:26:41.165Z,165.52
2022-11-26T19:29:09.098Z,109.75
2022-11-26T19:31:38.890Z,119.82
2022-11-26T19:34:08.929Z,94.72
2022-11-26T19:36:36.798Z,123.93
2022-11-26T19:39:04.291Z,128.88
2022-11-26T19:41:30.846Z,116.40
2022-11-26T19:44:00.534Z,98.07
2022-11-26T19:46:27.549Z,178.77
2022-11-26T19:48:55.653Z,104.22
2022-11-26T19:51:24.475Z,142.88
2022-11-26T19:53:52.926Z,97.63
2022-11-26T19:56:22.896Z,84.68
2022-11-26T19:58:51.420Z,41.70
2022-11-26T20:01:18.153Z,34.20
2022-11-26T20:03:45.016Z,29.67
2022-11-26T20:06:20.939Z,76.30
2022-11-26T20:08:48.766Z,59.38
2022-11-26T20:11:16.915Z,56.72
2022-11-26T20:13:45.277Z,28.42
2022-11-26T20:16:15.665Z,44.10
2022-11-26T20:18:42.268Z,25.85
2022-11-26T20:21:11.498Z,19.33
2022-11-26T20:23:38.547Z,28.02
2022-11-26T20:26:17.166Z,46.67
2022-11-26T20:28:44.525Z,35.60
2022-11-26T20:31:11.478Z,45.63
2022-11-26T20:33:38.337Z,41.85
2022-11-26T20:36:07.288Z,44.13
2022-11-26T20:38:34.450Z,41.97
2022-11-26T20:41:01.011Z,50.25
2022-11-26T20:43:27.499Z,51.05
2022-11-26T20:46:02.339Z,58.60
2022-11-26T20:48:30.267Z,39.35
2022-11-26T20:51:02.586Z,46.58
2022-11-26T20:53:29.069Z,40.00
2022-11-26T20:55:56.554Z,42.80
2022-11-26T20:58:24.564Z,81.57
2022-11-26T21:00:54.051Z,56.45
2022-11-26T21:03:25.769Z,55.78
2022-11-26T21:05:52.543Z,84.47
2022-11-26T21:08:20.178Z,169.25
2022-11-26T21:10:46.747Z,373.02
2022-11-26T21:13:19.616Z,73.20
2022-11-26T21:15:49.472Z,99.25
2022-11-26T21:18:16.349Z,27.75
2022-11-26T21:20:43.998Z,28.50
2022-11-26T21:23:12.002Z,29.48
2022-11-26T21:25:43.330Z,46.97
2022-11-26T21:28:11.355Z,34.63
2022-11-26T21:30:38.481Z,56.92
2022-11-26T21:33:09.306Z,37.10
2022-11-26T21:35:37.088Z,31.38
2022-11-26T21:38:04.658Z,32.55
2022-11-26T21:40:31.511Z,126.68
2022-11-26T21:42:58.265Z,135.77
2022-11-26T21:45:25.255Z,101.00
2022-11-26T21:47:52.565Z,47.90
2022-11-26T21:50:19.719Z,39.83
2022-11-26T21:52:46.719Z,38.30
2022-11-26T21:55:13.281Z,33.50
2022-11-26T21:57:39.858Z,32.00
2022-11-26T22:00:07.031Z,26.15
2022-11-26T22:02:33.596Z,44.72
2022-11-26T22:05:00.188Z,72.53
2022-11-26T22:07:26.878Z,104.05
2022-11-26T22:09:53.475Z,49.95
2022-11-26T22:12:19.951Z,35.08
2022-11-26T22:14:47.019Z,31.67
2022-11-26T22:17:13.525Z,29.42
2022-11-26T22:19:40.096Z,55.90
2022-11-26T22:22:06.744Z,29.63
2022-11-26T22:24:33.291Z,25.67
2022-11-26T22:26:59.820Z,28.23
2022-11-26T22:29:26.380Z,26.65
2022-11-26T22:31:52.941Z,48.25
2022-11-26T22:34:24.600Z,46.83
2022-11-26T22:36:51.394Z,34.13
2022-11-26T22:39:18.878Z,31.40
2022-11-26T22:41:46.790Z,24.88
2022-11-26T22:44:14.110Z,32.97
2022-11-26T22:46:40.652Z,63.00
2022-11-26T22:49:10.707Z,75.45
2022-11-26T22:54:07.100Z,49.97
2022-11-26T22:56:37.660Z,59.00
2022-11-26T22:59:05.984Z,27.65
2022-11-26T23:01:34.167Z,24.42
2022-11-26T23:04:03.003Z,38.90
2022-11-26T23:06:31.193Z,36.25
2022-11-26T23:08:59.209Z,33.70
2022-11-26T23:11:28.967Z,69.07
2022-11-26T23:13:56.055Z,114.70
2022-11-26T23:16:25.716Z,109.32
2022-11-26T23:18:54.985Z,39.45
2022-11-26T23:21:24.668Z,87.65
2022-11-26T23:23:51.855Z,25.73
2022-11-26T23:26:26.790Z,29.60
2022-11-26T23:28:54.693Z,76.55
2022-11-26T23:31:24.449Z,45.08
2022-11-26T23:33:51.646Z,52.17
2022-11-26T23:36:19.110Z,35.30
2022-11-26T23:38:46.383Z,55.15
2022-11-26T23:41:12.995Z,44.22
2022-11-26T23:43:40.039Z,51.97
2022-11-26T23:46:13.656Z,45.67
2022-11-26T23:48:40.248Z,75.60
2022-11-26T23:51:08.687Z,55.00
2022-11-26T23:53:40.345Z,58.97
2022-11-26T23:56:10.897Z,39.08
2022-11-26T23:58:37.604Z,55.72
